sensor_id;sensor_type;location;lat;lon;timestamp;P1;durP1;ratioP1;P2;durP2;ratioP2
20040;SDS011;10181;48.072;9.884;2022-11-21T00:00:28;37.33;;;36.00;;
20040;SDS011;10181;48.072;9.884;2022-11-21T00:02:58;32.13;;;31.07;;
20040;SDS011;10181;48.072;9.884;2022-11-21T00:05:25;34.30;;;33.13;;
20040;SDS011;10181;48.072;9.884;2022-11-21T00:07:54;21.57;;;20.83;;
20040;SDS011;10181;48.072;9.884;2022-11-21T00:10:21;18.77;;;18.17;;
20040;SDS011;10181;48.072;9.884;2022-11-21T00:12:51;15.00;;;14.50;;
20040;SDS011;10181;48.072;9.884;2022-11-21T00:15:18;13.77;;;13.37;;
20040;SDS011;10181;48.072;9.884;2022-11-21T00:17:44;20.77;;;20.13;;
20040;SDS011;10181;48.072;9.884;2022-11-21T00:20:09;18.70;;;18.10;;
20040;SDS011;10181;48.072;9.884;2022-11-21T00:22:36;7.60;;;7.40;;
20040;SDS011;10181;48.072;9.884;2022-11-21T00:25:01;15.60;;;15.17;;
20040;SDS011;10181;48.072;9.884;2022-11-21T00:27:27;21.77;;;21.07;;
20040;SDS011;10181;48.072;9.884;2022-11-21T00:29:53;10.53;;;10.17;;
20040;SDS011;10181;48.072;9.884;2022-11-21T00:32:18;17.83;;;17.23;;
20040;SDS011;10181;48.072;9.884;2022-11-21T00:34:44;14.23;;;13.83;;
20040;SDS011;10181;48.072;9.884;2022-11-21T00:37:10;7.43;;;7.23;;
20040;SDS011;10181;48.072;9.884;2022-11-21T00:39:35;24.23;;;23.37;;
20040;SDS011;10181;48.072;9.884;2022-11-21T00:42:01;21.83;;;20.97;;
20040;SDS011;10181;48.072;9.884;2022-11-21T00:44:27;9.00;;;8.70;;
20040;SDS011;10181;48.072;9.884;2022-11-21T00:46:52;22.00;;;21.13;;
20040;SDS011;10181;48.072;9.884;2022-11-21T00:49:18;19.90;;;19.27;;
20040;SDS011;10181;48.072;9.884;2022-11-21T00:51:43;17.37;;;16.80;;
20040;SDS011;10181;48.072;9.884;2022-11-21T00:54:09;39.23;;;37.83;;
20040;SDS011;10181;48.072;9.884;2022-11-21T00:56:35;37.17;;;35.87;;
20040;SDS011;10181;48.072;9.884;2022-11-21T00:59:00;34.43;;;33.23;;
20040;SDS011;10181;48.072;9.884;2022-11-21T01:01:26;48.17;;;46.30;;
20040;SDS011;10181;48.072;9.884;2022-11-21T01:03:52;35.17;;;33.97;;
20040;SDS011;10181;48.072;9.884;2022-11-21T01:06:17;31.93;;;30.80;;
20040;SDS011;10181;48.072;9.884;2022-11-21T01:08:43;35.47;;;34.20;;
20040;SDS011;10181;48.072;9.884;2022-11-21T01:11:13;36.77;;;35.30;;
20040;SDS011;10181;48.072;9.884;2022-11-21T01:13:40;31.07;;;29.87;;
20040;SDS011;10181;48.072;9.884;2022-11-21T01:18:32;24.33;;;23.53;;
20040;SDS011;10181;48.072;9.884;2022-11-21T01:21:06;34.40;;;33.20;;
20040;SDS011;10181;48.072;9.884;2022-11-21T01:23:52;11.37;;;11.03;;
20040;SDS011;10181;48.072;9.884;2022-11-21T01:26:22;33.07;;;31.73;;
20040;SDS011;10181;48.072;9.884;2022-11-21T01:28:50;15.80;;;15.17;;
20040;SDS011;10181;48.072;9.884;2022-11-21T01:33:43;20.20;;;19.57;;
20040;SDS011;10181;48.072;9.884;2022-11-21T01:36:09;24.00;;;23.20;;
20040;SDS011;10181;48.072;9.884;2022-11-21T01:38:37;19.73;;;19.00;;
20040;SDS011;10181;48.072;9.884;2022-11-21T01:41:04;34.67;;;33.37;;
20040;SDS011;10181;48.072;9.884;2022-11-21T01:43:30;29.60;;;28.50;;
20040;SDS011;10181;48.072;9.884;2022-11-21T01:45:57;16.87;;;16.27;;
20040;SDS011;10181;48.072;9.884;2022-11-21T01:48:39;16.57;;;16.00;;
20040;SDS011;10181;48.072;9.884;2022-11-21T01:51:18;10.27;;;9.93;;
20040;SDS011;10181;48.072;9.884;2022-11-21T01:53:46;20.83;;;20.13;;
20040;SDS011;10181;48.072;9.884;2022-11-21T01:56:16;7.23;;;7.03;;
20040;SDS011;10181;48.072;9.884;2022-11-21T01:58:42;17.67;;;17.03;;
20040;SDS011;10181;48.072;9.884;2022-11-21T02:01:11;24.63;;;23.73;;
20040;SDS011;10181;48.072;9.884;2022-11-21T02:03:37;7.70;;;7.50;;
20040;SDS011;10181;48.072;9.884;2022-11-21T02:06:05;6.10;;;5.90;;
20040;SDS011;10181;48.072;9.884;2022-11-21T02:08:33;7.67;;;7.47;;
20040;SDS011;10181;48.072;9.884;2022-11-21T02:11:25;16.10;;;15.60;;
20040;SDS011;10181;48.072;9.884;2022-11-21T02:13:56;12.47;;;12.07;;
20040;SDS011;10181;48.072;9.884;2022-11-21T02:16:23;6.60;;;6.40;;
20040;SDS011;10181;48.072;9.884;2022-11-21T02:18:50;6.80;;;6.50;;
20040;SDS011;10181;48.072;9.884;2022-11-21T02:24:01;13.70;;;13.23;;
20040;SDS011;10181;48.072;9.884;2022-11-21T02:26:29;12.20;;;11.80;;
20040;SDS011;10181;48.072;9.884;2022-11-21T02:28:54;13.20;;;12.80;;
20040;SDS011;10181;48.072;9.884;2022-11-21T02:31:20;15.77;;;15.17;;
20040;SDS011;10181;48.072;9.884;2022-11-21T02:33:46;5.80;;;5.60;;
20040;SDS011;10181;48.072;9.884;2022-11-21T02:39:02;8.97;;;8.67;;
20040;SDS011;10181;48.072;9.884;2022-11-21T02:41:30;9.20;;;8.90;;
20040;SDS011;10181;48.072;9.884;2022-11-21T02:43:59;8.30;;;8.00;;
20040;SDS011;10181;48.072;9.884;2022-11-21T02:46:29;11.53;;;11.13;;
20040;SDS011;10181;48.072;9.884;2022-11-21T02:48:57;8.13;;;7.83;;
20040;SDS011;10181;48.072;9.884;2022-11-21T02:51:23;20.77;;;19.93;;
20040;SDS011;10181;48.072;9.884;2022-11-21T02:53:49;18.03;;;17.43;;
20040;SDS011;10181;48.072;9.884;2022-11-21T02:56:14;23.97;;;23.13;;
20040;SDS011;10181;48.072;9.884;2022-11-21T02:58:40;30.17;;;29.00;;
20040;SDS011;10181;48.072;9.884;2022-11-21T03:01:06;29.90;;;28.83;;
20040;SDS011;10181;48.072;9.884;2022-11-21T03:03:31;31.77;;;30.57;;
20040;SDS011;10181;48.072;9.884;2022-11-21T03:05:57;23.20;;;22.33;;
20040;SDS011;10181;48.072;9.884;2022-11-21T03:08:22;24.47;;;23.63;;
20040;SDS011;10181;48.072;9.884;2022-11-21T03:10:51;19.53;;;18.87;;
20040;SDS011;10181;48.072;9.884;2022-11-21T03:13:17;28.60;;;27.60;;
20040;SDS011;10181;48.072;9.884;2022-11-21T03:15:42;32.30;;;31.17;;
20040;SDS011;10181;48.072;9.884;2022-11-21T03:18:08;38.50;;;36.97;;
20040;SDS011;10181;48.072;9.884;2022-11-21T03:20:33;37.63;;;36.27;;
20040;SDS011;10181;48.072;9.884;2022-11-21T03:22:59;40.80;;;39.30;;
20040;SDS011;10181;48.072;9.884;2022-11-21T03:25:25;30.60;;;29.53;;
20040;SDS011;10181;48.072;9.884;2022-11-21T03:27:51;40.23;;;38.77;;
20040;SDS011;10181;48.072;9.884;2022-11-21T03:30:23;37.67;;;36.07;;
20040;SDS011;10181;48.072;9.884;2022-11-21T03:32:50;37.13;;;35.83;;
20040;SDS011;10181;48.072;9.884;2022-11-21T03:35:18;36.93;;;35.53;;
20040;SDS011;10181;48.072;9.884;2022-11-21T03:37:44;41.50;;;40.00;;
20040;SDS011;10181;48.072;9.884;2022-11-21T03:40:12;39.83;;;38.37;;
20040;SDS011;10181;48.072;9.884;2022-11-21T03:42:38;38.93;;;37.43;;
20040;SDS011;10181;48.072;9.884;2022-11-21T03:45:04;36.03;;;34.67;;
20040;SDS011;10181;48.072;9.884;2022-11-21T03:47:30;42.00;;;40.40;;
20040;SDS011;10181;48.072;9.884;2022-11-21T03:49:55;31.07;;;29.90;;
20040;SDS011;10181;48.072;9.884;2022-11-21T03:52:21;43.90;;;42.27;;
20040;SDS011;10181;48.072;9.884;2022-11-21T03:54:46;16.73;;;16.13;;
20040;SDS011;10181;48.072;9.884;2022-11-21T03:57:12;22.87;;;22.07;;
20040;SDS011;10181;48.072;9.884;2022-11-21T03:59:38;11.90;;;11.50;;
20040;SDS011;10181;48.072;9.884;2022-11-21T04:02:03;7.70;;;7.47;;
20040;SDS011;10181;48.072;9.884;2022-11-21T04:04:29;5.07;;;4.87;;
20040;SDS011;10181;48.072;9.884;2022-11-21T04:06:54;4.33;;;4.17;;
20040;SDS011;10181;48.072;9.884;2022-11-21T04:09:20;4.93;;;4.80;;
20040;SDS011;10181;48.072;9.884;2022-11-21T04:11:45;4.83;;;4.70;;
20040;SDS011;10181;48.072;9.884;2022-11-21T04:14:11;4.63;;;4.47;;
20040;SDS011;10181;48.072;9.884;2022-11-21T04:16:37;5.57;;;5.40;;
20040;SDS011;10181;48.072;9.884;2022-11-21T04:19:02;6.47;;;6.27;;
20040;SDS011;10181;48.072;9.884;2022-11-21T04:21:28;9.50;;;9.20;;
20040;SDS011;10181;48.072;9.884;2022-11-21T04:23:53;8.20;;;7.87;;
20040;SDS011;10181;48.072;9.884;2022-11-21T04:26:19;8.43;;;8.17;;
20040;SDS011;10181;48.072;9.884;2022-11-21T04:28:45;9.97;;;9.70;;
20040;SDS011;10181;48.072;9.884;2022-11-21T04:31:10;11.07;;;10.70;;
20040;SDS011;10181;48.072;9.884;2022-11-21T04:33:36;13.63;;;13.23;;
20040;SDS011;10181;48.072;9.884;2022-11-21T04:36:03;10.97;;;10.67;;
20040;SDS011;10181;48.072;9.884;2022-11-21T04:38:28;8.87;;;8.53;;
20040;SDS011;10181;48.072;9.884;2022-11-21T04:40:54;4.93;;;4.80;;
20040;SDS011;10181;48.072;9.884;2022-11-21T04:43:19;5.17;;;5.07;;
20040;SDS011;10181;48.072;9.884;2022-11-21T04:45:45;4.87;;;4.77;;
20040;SDS011;10181;48.072;9.884;2022-11-21T04:48:11;4.77;;;4.67;;
20040;SDS011;10181;48.072;9.884;2022-11-21T04:50:36;4.83;;;4.73;;
20040;SDS011;10181;48.072;9.884;2022-11-21T04:53:02;3.87;;;3.77;;
20040;SDS011;10181;48.072;9.884;2022-11-21T04:55:29;5.20;;;5.00;;
20040;SDS011;10181;48.072;9.884;2022-11-21T04:57:56;2.57;;;2.57;;
20040;SDS011;10181;48.072;9.884;2022-11-21T05:00:22;2.20;;;2.20;;
20040;SDS011;10181;48.072;9.884;2022-11-21T05:02:47;2.73;;;2.63;;
20040;SDS011;10181;48.072;9.884;2022-11-21T05:05:13;1.73;;;1.73;;
20040;SDS011;10181;48.072;9.884;2022-11-21T05:07:39;1.30;;;1.30;;
20040;SDS011;10181;48.072;9.884;2022-11-21T05:10:05;1.90;;;1.90;;
20040;SDS011;10181;48.072;9.884;2022-11-21T05:12:31;1.70;;;1.70;;
20040;SDS011;10181;48.072;9.884;2022-11-21T05:15:16;2.73;;;1.47;;
20040;SDS011;10181;48.072;9.884;2022-11-21T05:17:42;1.43;;;1.43;;
20040;SDS011;10181;48.072;9.884;2022-11-21T05:20:08;2.10;;;2.00;;
20040;SDS011;10181;48.072;9.884;2022-11-21T05:22:34;2.07;;;2.07;;
20040;SDS011;10181;48.072;9.884;2022-11-21T05:24:59;2.07;;;2.07;;
20040;SDS011;10181;48.072;9.884;2022-11-21T05:27:25;2.43;;;2.33;;
20040;SDS011;10181;48.072;9.884;2022-11-21T05:29:51;2.37;;;2.27;;
20040;SDS011;10181;48.072;9.884;2022-11-21T05:32:17;2.00;;;2.00;;
20040;SDS011;10181;48.072;9.884;2022-11-21T05:34:42;2.03;;;2.03;;
20040;SDS011;10181;48.072;9.884;2022-11-21T05:37:08;2.00;;;2.00;;
20040;SDS011;10181;48.072;9.884;2022-11-21T05:39:34;3.13;;;3.03;;
20040;SDS011;10181;48.072;9.884;2022-11-21T05:41:59;6.47;;;4.70;;
20040;SDS011;10181;48.072;9.884;2022-11-21T05:44:25;2.40;;;2.30;;
20040;SDS011;10181;48.072;9.884;2022-11-21T05:46:50;3.60;;;3.30;;
20040;SDS011;10181;48.072;9.884;2022-11-21T05:49:16;2.90;;;2.70;;
20040;SDS011;10181;48.072;9.884;2022-11-21T05:51:42;3.47;;;3.00;;
20040;SDS011;10181;48.072;9.884;2022-11-21T05:54:10;2.70;;;2.50;;
20040;SDS011;10181;48.072;9.884;2022-11-21T05:56:39;4.77;;;3.47;;
20040;SDS011;10181;48.072;9.884;2022-11-21T05:59:07;22.03;;;17.37;;
20040;SDS011;10181;48.072;9.884;2022-11-21T06:01:34;4.00;;;3.70;;
20040;SDS011;10181;48.072;9.884;2022-11-21T06:04:18;2.00;;;2.00;;
20040;SDS011;10181;48.072;9.884;2022-11-21T06:06:43;2.00;;;1.90;;
20040;SDS011;10181;48.072;9.884;2022-11-21T06:09:09;2.17;;;2.07;;
20040;SDS011;10181;48.072;9.884;2022-11-21T06:11:35;1.73;;;1.73;;
20040;SDS011;10181;48.072;9.884;2022-11-21T06:14:00;1.70;;;1.70;;
20040;SDS011;10181;48.072;9.884;2022-11-21T06:16:26;2.03;;;2.03;;
20040;SDS011;10181;48.072;9.884;2022-11-21T06:18:52;1.97;;;1.97;;
20040;SDS011;10181;48.072;9.884;2022-11-21T06:21:18;1.83;;;1.73;;
20040;SDS011;10181;48.072;9.884;2022-11-21T06:23:46;1.67;;;1.67;;
20040;SDS011;10181;48.072;9.884;2022-11-21T06:26:14;1.83;;;1.73;;
20040;SDS011;10181;48.072;9.884;2022-11-21T06:28:42;1.53;;;1.53;;
20040;SDS011;10181;48.072;9.884;2022-11-21T06:31:11;1.70;;;1.70;;
20040;SDS011;10181;48.072;9.884;2022-11-21T06:33:39;2.70;;;2.60;;
20040;SDS011;10181;48.072;9.884;2022-11-21T06:36:06;1.67;;;1.67;;
20040;SDS011;10181;48.072;9.884;2022-11-21T06:38:33;1.80;;;1.80;;
20040;SDS011;10181;48.072;9.884;2022-11-21T06:41:06;2.40;;;2.30;;
20040;SDS011;10181;48.072;9.884;2022-11-21T06:43:35;1.77;;;1.77;;
20040;SDS011;10181;48.072;9.884;2022-11-21T06:46:01;1.80;;;1.80;;
20040;SDS011;10181;48.072;9.884;2022-11-21T06:48:28;5.63;;;4.77;;
20040;SDS011;10181;48.072;9.884;2022-11-21T06:51:02;1.77;;;1.77;;
20040;SDS011;10181;48.072;9.884;2022-11-21T06:53:41;1.80;;;1.80;;
20040;SDS011;10181;48.072;9.884;2022-11-21T06:56:07;2.10;;;2.00;;
20040;SDS011;10181;48.072;9.884;2022-11-21T06:58:33;2.37;;;2.20;;
20040;SDS011;10181;48.072;9.884;2022-11-21T07:01:03;3.90;;;3.70;;
20040;SDS011;10181;48.072;9.884;2022-11-21T07:03:29;2.70;;;2.60;;
20040;SDS011;10181;48.072;9.884;2022-11-21T07:05:55;3.03;;;2.93;;
20040;SDS011;10181;48.072;9.884;2022-11-21T07:08:25;2.80;;;2.70;;
20040;SDS011;10181;48.072;9.884;2022-11-21T07:10:52;3.10;;;3.00;;
20040;SDS011;10181;48.072;9.884;2022-11-21T07:13:17;3.27;;;3.07;;
20040;SDS011;10181;48.072;9.884;2022-11-21T07:15:46;3.07;;;2.93;;
20040;SDS011;10181;48.072;9.884;2022-11-21T07:18:16;3.03;;;2.93;;
20040;SDS011;10181;48.072;9.884;2022-11-21T07:20:43;2.87;;;2.77;;
20040;SDS011;10181;48.072;9.884;2022-11-21T07:23:09;2.93;;;2.83;;
20040;SDS011;10181;48.072;9.884;2022-11-21T07:25:34;3.50;;;3.30;;
20040;SDS011;10181;48.072;9.884;2022-11-21T07:28:00;3.23;;;3.13;;
20040;SDS011;10181;48.072;9.884;2022-11-21T07:30:26;3.20;;;3.10;;
20040;SDS011;10181;48.072;9.884;2022-11-21T07:33:03;4.43;;;4.23;;
20040;SDS011;10181;48.072;9.884;2022-11-21T07:35:30;6.20;;;5.83;;
20040;SDS011;10181;48.072;9.884;2022-11-21T07:37:57;5.30;;;4.20;;
20040;SDS011;10181;48.072;9.884;2022-11-21T07:40:23;4.07;;;3.87;;
20040;SDS011;10181;48.072;9.884;2022-11-21T07:42:49;3.73;;;3.40;;
20040;SDS011;10181;48.072;9.884;2022-11-21T07:45:15;2.80;;;2.70;;
20040;SDS011;10181;48.072;9.884;2022-11-21T07:47:40;4.80;;;4.50;;
20040;SDS011;10181;48.072;9.884;2022-11-21T07:50:06;2.00;;;2.00;;
20040;SDS011;10181;48.072;9.884;2022-11-21T07:52:33;2.63;;;2.47;;
20040;SDS011;10181;48.072;9.884;2022-11-21T07:54:59;2.17;;;2.17;;
20040;SDS011;10181;48.072;9.884;2022-11-21T07:57:26;2.37;;;2.27;;
20040;SDS011;10181;48.072;9.884;2022-11-21T07:59:52;2.37;;;2.33;;
20040;SDS011;10181;48.072;9.884;2022-11-21T08:02:25;3.93;;;3.83;;
20040;SDS011;10181;48.072;9.884;2022-11-21T08:04:52;2.33;;;2.23;;
20040;SDS011;10181;48.072;9.884;2022-11-21T08:07:18;2.47;;;2.37;;
20040;SDS011;10181;48.072;9.884;2022-11-21T08:09:46;1.87;;;1.87;;
20040;SDS011;10181;48.072;9.884;2022-11-21T08:12:12;2.43;;;2.23;;
20040;SDS011;10181;48.072;9.884;2022-11-21T08:14:38;2.00;;;2.00;;
20040;SDS011;10181;48.072;9.884;2022-11-21T08:17:04;3.00;;;2.90;;
20040;SDS011;10181;48.072;9.884;2022-11-21T08:19:30;2.33;;;2.23;;
20040;SDS011;10181;48.072;9.884;2022-11-21T08:21:56;3.90;;;3.80;;
20040;SDS011;10181;48.072;9.884;2022-11-21T08:24:22;4.90;;;4.73;;
20040;SDS011;10181;48.072;9.884;2022-11-21T08:26:48;16.10;;;15.47;;
20040;SDS011;10181;48.072;9.884;2022-11-21T08:29:14;18.37;;;17.07;;
20040;SDS011;10181;48.072;9.884;2022-11-21T08:31:40;19.27;;;18.60;;
20040;SDS011;10181;48.072;9.884;2022-11-21T08:34:07;26.53;;;25.63;;
20040;SDS011;10181;48.072;9.884;2022-11-21T08:36:33;26.40;;;25.40;;
20040;SDS011;10181;48.072;9.884;2022-11-21T08:38:58;30.90;;;29.67;;
20040;SDS011;10181;48.072;9.884;2022-11-21T08:41:24;47.87;;;46.03;;
20040;SDS011;10181;48.072;9.884;2022-11-21T08:44:09;34.93;;;33.53;;
20040;SDS011;10181;48.072;9.884;2022-11-21T08:46:35;43.57;;;41.90;;
20040;SDS011;10181;48.072;9.884;2022-11-21T08:49:03;33.90;;;32.43;;
20040;SDS011;10181;48.072;9.884;2022-11-21T08:51:32;35.23;;;33.97;;
20040;SDS011;10181;48.072;9.884;2022-11-21T08:53:59;25.00;;;24.13;;
20040;SDS011;10181;48.072;9.884;2022-11-21T08:56:25;10.17;;;9.87;;
20040;SDS011;10181;48.072;9.884;2022-11-21T08:58:50;11.77;;;11.30;;
20040;SDS011;10181;48.072;9.884;2022-11-21T09:01:16;20.73;;;19.97;;
20040;SDS011;10181;48.072;9.884;2022-11-21T09:03:42;16.83;;;16.23;;
20040;SDS011;10181;48.072;9.884;2022-11-21T09:06:08;19.87;;;19.03;;
20040;SDS011;10181;48.072;9.884;2022-11-21T09:08:33;22.17;;;21.40;;
20040;SDS011;10181;48.072;9.884;2022-11-21T09:11:06;44.50;;;42.80;;
20040;SDS011;10181;48.072;9.884;2022-11-21T09:13:33;51.33;;;49.17;;
20040;SDS011;10181;48.072;9.884;2022-11-21T09:15:59;63.10;;;60.80;;
20040;SDS011;10181;48.072;9.884;2022-11-21T09:18:44;63.90;;;61.50;;
20040;SDS011;10181;48.072;9.884;2022-11-21T09:21:16;54.83;;;52.73;;
20040;SDS011;10181;48.072;9.884;2022-11-21T09:23:43;48.20;;;46.20;;
20040;SDS011;10181;48.072;9.884;2022-11-21T09:26:09;30.30;;;29.23;;
20040;SDS011;10181;48.072;9.884;2022-11-21T09:28:35;9.40;;;9.10;;
20040;SDS011;10181;48.072;9.884;2022-11-21T09:31:01;11.77;;;10.97;;
20040;SDS011;10181;48.072;9.884;2022-11-21T09:33:27;6.40;;;6.17;;
20040;SDS011;10181;48.072;9.884;2022-11-21T09:35:53;5.70;;;5.50;;
20040;SDS011;10181;48.072;9.884;2022-11-21T09:38:19;6.53;;;6.23;;
20040;SDS011;10181;48.072;9.884;2022-11-21T09:40:45;9.57;;;9.27;;
20040;SDS011;10181;48.072;9.884;2022-11-21T09:43:15;12.67;;;12.10;;
20040;SDS011;10181;48.072;9.884;2022-11-21T09:45:57;12.47;;;11.97;;
20040;SDS011;10181;48.072;9.884;2022-11-21T09:48:48;8.10;;;7.90;;
20040;SDS011;10181;48.072;9.884;2022-11-21T09:51:18;12.27;;;11.80;;
20040;SDS011;10181;48.072;9.884;2022-11-21T09:56:17;12.73;;;12.27;;
20040;SDS011;10181;48.072;9.884;2022-11-21T09:58:48;15.27;;;14.77;;
20040;SDS011;10181;48.072;9.884;2022-11-21T10:01:27;27.97;;;27.00;;
20040;SDS011;10181;48.072;9.884;2022-11-21T10:03:53;46.80;;;44.90;;
20040;SDS011;10181;48.072;9.884;2022-11-21T10:06:28;53.33;;;51.37;;
20040;SDS011;10181;48.072;9.884;2022-11-21T10:23:11;61.30;;;59.03;;
20040;SDS011;10181;48.072;9.884;2022-11-21T10:26:05;55.27;;;53.20;;
20040;SDS011;10181;48.072;9.884;2022-11-21T10:31:16;58.53;;;56.23;;
20040;SDS011;10181;48.072;9.884;2022-11-21T10:33:43;49.63;;;47.80;;
20040;SDS011;10181;48.072;9.884;2022-11-21T10:38:47;34.27;;;32.93;;
20040;SDS011;10181;48.072;9.884;2022-11-21T10:41:22;24.80;;;23.80;;
20040;SDS011;10181;48.072;9.884;2022-11-21T10:44:16;11.70;;;11.20;;
20040;SDS011;10181;48.072;9.884;2022-11-21T10:49:58;10.63;;;10.23;;
20040;SDS011;10181;48.072;9.884;2022-11-21T10:55:09;10.50;;;10.00;;
20040;SDS011;10181;48.072;9.884;2022-11-21T10:57:38;9.77;;;9.47;;
20040;SDS011;10181;48.072;9.884;2022-11-21T11:02:40;4.27;;;4.17;;
20040;SDS011;10181;48.072;9.884;2022-11-21T11:07:57;3.03;;;2.93;;
20040;SDS011;10181;48.072;9.884;2022-11-21T11:10:24;3.77;;;3.63;;
20040;SDS011;10181;48.072;9.884;2022-11-21T11:12:50;3.37;;;3.17;;
20040;SDS011;10181;48.072;9.884;2022-11-21T11:15:35;3.00;;;2.90;;
20040;SDS011;10181;48.072;9.884;2022-11-21T11:18:03;4.73;;;4.53;;
20040;SDS011;10181;48.072;9.884;2022-11-21T11:20:35;2.60;;;2.50;;
20040;SDS011;10181;48.072;9.884;2022-11-21T11:23:16;1.10;;;1.10;;
20040;SDS011;10181;48.072;9.884;2022-11-21T11:28:23;1.10;;;1.00;;
20040;SDS011;10181;48.072;9.884;2022-11-21T11:30:51;4.73;;;1.10;;
20040;SDS011;10181;48.072;9.884;2022-11-21T11:38:40;1.30;;;1.17;;
20040;SDS011;10181;48.072;9.884;2022-11-21T11:41:12;1.50;;;0.90;;
20040;SDS011;10181;48.072;9.884;2022-11-21T11:43:55;0.80;;;0.80;;
20040;SDS011;10181;48.072;9.884;2022-11-21T11:47:12;0.70;;;0.70;;
20040;SDS011;10181;48.072;9.884;2022-11-21T11:52:38;1.10;;;1.10;;
20040;SDS011;10181;48.072;9.884;2022-11-21T11:55:18;1.13;;;1.03;;
20040;SDS011;10181;48.072;9.884;2022-11-21T11:57:53;1.50;;;1.50;;
20040;SDS011;10181;48.072;9.884;2022-11-21T12:03:24;3.20;;;3.10;;
20040;SDS011;10181;48.072;9.884;2022-11-21T12:06:16;3.77;;;3.53;;
20040;SDS011;10181;48.072;9.884;2022-11-21T12:08:52;4.87;;;4.67;;
20040;SDS011;10181;48.072;9.884;2022-11-21T12:11:28;5.83;;;5.43;;
20040;SDS011;10181;48.072;9.884;2022-11-21T12:17:25;2.47;;;1.57;;
20040;SDS011;10181;48.072;9.884;2022-11-21T12:23:08;5.73;;;5.53;;
20040;SDS011;10181;48.072;9.884;2022-11-21T12:25:35;2.87;;;2.63;;
20040;SDS011;10181;48.072;9.884;2022-11-21T12:28:07;2.13;;;2.03;;
20040;SDS011;10181;48.072;9.884;2022-11-21T12:33:27;7.00;;;6.73;;
20040;SDS011;10181;48.072;9.884;2022-11-21T12:54:01;7.27;;;6.93;;
20040;SDS011;10181;48.072;9.884;2022-11-21T12:59:49;11.93;;;11.57;;
20040;SDS011;10181;48.072;9.884;2022-11-21T13:05:01;10.87;;;10.47;;
20040;SDS011;10181;48.072;9.884;2022-11-21T13:07:29;4.47;;;4.10;;
20040;SDS011;10181;48.072;9.884;2022-11-21T13:09:56;4.93;;;4.77;;
20040;SDS011;10181;48.072;9.884;2022-11-21T13:12:27;4.73;;;4.63;;
20040;SDS011;10181;48.072;9.884;2022-11-21T13:18:04;4.73;;;4.63;;
20040;SDS011;10181;48.072;9.884;2022-11-21T13:20:59;6.13;;;5.93;;
20040;SDS011;10181;48.072;9.884;2022-11-21T13:23:38;4.37;;;4.17;;
20040;SDS011;10181;48.072;9.884;2022-11-21T13:28:49;1.60;;;1.57;;
20040;SDS011;10181;48.072;9.884;2022-11-21T13:31:35;1.60;;;1.60;;
20040;SDS011;10181;48.072;9.884;2022-11-21T13:34:02;2.90;;;1.47;;
20040;SDS011;10181;48.072;9.884;2022-11-21T13:52:26;3.50;;;2.10;;
20040;SDS011;10181;48.072;9.884;2022-11-21T13:58:21;1.60;;;1.40;;
20040;SDS011;10181;48.072;9.884;2022-11-21T14:11:43;0.83;;;0.83;;
20040;SDS011;10181;48.072;9.884;2022-11-21T14:14:36;0.73;;;0.60;;
20040;SDS011;10181;48.072;9.884;2022-11-21T14:17:08;0.60;;;0.60;;
20040;SDS011;10181;48.072;9.884;2022-11-21T14:19:48;0.70;;;0.70;;
20040;SDS011;10181;48.072;9.884;2022-11-21T14:22:19;2.37;;;1.10;;
20040;SDS011;10181;48.072;9.884;2022-11-21T14:24:49;1.47;;;0.70;;
20040;SDS011;10181;48.072;9.884;2022-11-21T14:27:21;1.93;;;0.90;;
20040;SDS011;10181;48.072;9.884;2022-11-21T14:29:54;0.90;;;0.90;;
20040;SDS011;10181;48.072;9.884;2022-11-21T14:32:27;1.77;;;1.67;;
20040;SDS011;10181;48.072;9.884;2022-11-21T14:35:06;1.73;;;1.60;;
20040;SDS011;10181;48.072;9.884;2022-11-21T14:37:33;1.80;;;1.70;;
20040;SDS011;10181;48.072;9.884;2022-11-21T14:40:00;2.33;;;2.20;;
20040;SDS011;10181;48.072;9.884;2022-11-21T14:42:34;0.70;;;0.70;;
20040;SDS011;10181;48.072;9.884;2022-11-21T14:45:07;1.67;;;1.53;;
20040;SDS011;10181;48.072;9.884;2022-11-21T14:47:51;2.10;;;0.60;;
20040;SDS011;10181;48.072;9.884;2022-11-21T14:50:24;0.70;;;0.70;;
20040;SDS011;10181;48.072;9.884;2022-11-21T14:52:55;1.70;;;0.93;;
20040;SDS011;10181;48.072;9.884;2022-11-21T14:55:32;0.77;;;0.60;;
20040;SDS011;10181;48.072;9.884;2022-11-21T14:57:58;1.37;;;1.27;;
20040;SDS011;10181;48.072;9.884;2022-11-21T15:00:27;0.70;;;0.70;;
20040;SDS011;10181;48.072;9.884;2022-11-21T15:02:54;0.77;;;0.77;;
20040;SDS011;10181;48.072;9.884;2022-11-21T15:05:25;0.80;;;0.80;;
20040;SDS011;10181;48.072;9.884;2022-11-21T15:07:54;1.77;;;1.77;;
20040;SDS011;10181;48.072;9.884;2022-11-21T15:10:21;2.90;;;2.80;;
20040;SDS011;10181;48.072;9.884;2022-11-21T15:12:53;1.97;;;1.87;;
20040;SDS011;10181;48.072;9.884;2022-11-21T15:15:41;3.10;;;1.50;;
20040;SDS011;10181;48.072;9.884;2022-11-21T15:18:16;2.37;;;2.27;;
20040;SDS011;10181;48.072;9.884;2022-11-21T15:20:46;2.53;;;2.33;;
20040;SDS011;10181;48.072;9.884;2022-11-21T15:23:24;2.13;;;2.03;;
20040;SDS011;10181;48.072;9.884;2022-11-21T15:25:51;3.87;;;3.57;;
20040;SDS011;10181;48.072;9.884;2022-11-21T15:28:17;5.13;;;4.93;;
20040;SDS011;10181;48.072;9.884;2022-11-21T15:30:44;9.37;;;8.97;;
20040;SDS011;10181;48.072;9.884;2022-11-21T15:35:52;2.60;;;2.60;;
20040;SDS011;10181;48.072;9.884;2022-11-21T15:38:26;2.73;;;1.27;;
20040;SDS011;10181;48.072;9.884;2022-11-21T15:49:11;3.10;;;2.90;;
20040;SDS011;10181;48.072;9.884;2022-11-21T15:51:38;3.03;;;2.80;;
20040;SDS011;10181;48.072;9.884;2022-11-21T15:54:10;3.00;;;2.80;;
20040;SDS011;10181;48.072;9.884;2022-11-21T15:56:40;5.83;;;5.73;;
20040;SDS011;10181;48.072;9.884;2022-11-21T15:59:07;10.57;;;10.27;;
20040;SDS011;10181;48.072;9.884;2022-11-21T16:01:33;9.17;;;8.60;;
20040;SDS011;10181;48.072;9.884;2022-11-21T16:03:59;8.67;;;8.27;;
20040;SDS011;10181;48.072;9.884;2022-11-21T16:06:27;5.97;;;5.87;;
20040;SDS011;10181;48.072;9.884;2022-11-21T16:08:54;2.23;;;2.17;;
20040;SDS011;10181;48.072;9.884;2022-11-21T16:11:24;1.77;;;1.77;;
20040;SDS011;10181;48.072;9.884;2022-11-21T16:13:55;1.33;;;1.33;;
20040;SDS011;10181;48.072;9.884;2022-11-21T16:16:24;1.17;;;1.17;;
20040;SDS011;10181;48.072;9.884;2022-11-21T16:18:57;1.27;;;1.27;;
20040;SDS011;10181;48.072;9.884;2022-11-21T16:21:24;1.40;;;1.30;;
20040;SDS011;10181;48.072;9.884;2022-11-21T16:23:50;1.43;;;1.37;;
20040;SDS011;10181;48.072;9.884;2022-11-21T16:26:16;1.17;;;1.17;;
20040;SDS011;10181;48.072;9.884;2022-11-21T16:28:42;1.23;;;1.23;;
20040;SDS011;10181;48.072;9.884;2022-11-21T16:31:18;1.50;;;1.40;;
20040;SDS011;10181;48.072;9.884;2022-11-21T16:33:45;2.67;;;1.23;;
20040;SDS011;10181;48.072;9.884;2022-11-21T16:36:11;1.70;;;1.60;;
20040;SDS011;10181;48.072;9.884;2022-11-21T16:38:37;1.90;;;1.73;;
20040;SDS011;10181;48.072;9.884;2022-11-21T16:41:02;2.20;;;2.10;;
20040;SDS011;10181;48.072;9.884;2022-11-21T16:43:29;2.27;;;2.17;;
20040;SDS011;10181;48.072;9.884;2022-11-21T16:45:55;2.10;;;1.90;;
20040;SDS011;10181;48.072;9.884;2022-11-21T16:48:31;2.47;;;1.80;;
20040;SDS011;10181;48.072;9.884;2022-11-21T16:53:42;2.10;;;2.00;;
20040;SDS011;10181;48.072;9.884;2022-11-21T16:56:09;2.47;;;2.37;;
20040;SDS011;10181;48.072;9.884;2022-11-21T16:58:35;2.27;;;2.17;;
20040;SDS011;10181;48.072;9.884;2022-11-21T17:03:44;2.90;;;2.70;;
20040;SDS011;10181;48.072;9.884;2022-11-21T17:06:11;3.40;;;3.13;;
20040;SDS011;10181;48.072;9.884;2022-11-21T17:08:38;4.53;;;4.40;;
20040;SDS011;10181;48.072;9.884;2022-11-21T17:11:15;5.07;;;4.97;;